Time;durP1;ratioP1;P1;durP2;ratioP2;P2;SDS_P1;SDS_P2;PMS_P1;PMS_P2;Temp;Humidity;BMP_temperature;BMP_pressure;BME280_temperature;BME280_humidity;BME280_pressure;Samples;Min_cycle;Max_cycle;Signal;HPM_P1;HPM_P2
2021/09/11 00:02:17;;;;;;;1.80;1.70;;;23.10;43.90;;;;;;4785983;29;20046;-72
2021/09/11 00:04:49;;;;;;;1.73;1.63;;;23.10;43.90;;;;;;4788739;29;20055;-72
2021/09/11 00:07:16;;;;;;;1.42;1.30;;;23.10;43.90;;;;;;4794541;29;20051;-72
2021/09/11 00:09:43;;;;;;;1.73;1.63;;;23.10;44.00;;;;;;4795960;29;20126;-72
2021/09/11 00:12:11;;;;;;;3.35;1.77;;;23.10;44.00;;;;;;4786605;29;20057;-72
2021/09/11 00:14:38;;;;;;;1.40;1.30;;;23.00;43.90;;;;;;4791617;29;20090;-73
2021/09/11 00:17:05;;;;;;;1.30;1.20;;;23.10;43.90;;;;;;4791431;29;20051;-72
2021/09/11 00:19:35;;;;;;;1.42;1.33;;;23.00;43.90;;;;;;4794919;29;20055;-73
2021/09/11 00:22:03;;;;;;;1.48;1.30;;;23.10;44.00;;;;;;4786799;29;20094;-70
2021/09/11 00:24:30;;;;;;;1.77;1.45;;;23.00;43.90;;;;;;4790753;29;20130;-73
2021/09/11 00:26:57;;;;;;;1.50;1.40;;;23.00;43.90;;;;;;4793571;29;20125;-72
2021/09/11 00:29:24;;;;;;;2.03;1.83;;;23.10;44.00;;;;;;4795374;29;20047;-73
2021/09/11 00:31:51;;;;;;;1.77;1.67;;;23.00;43.90;;;;;;4788591;29;20055;-72
2021/09/11 00:34:19;;;;;;;2.22;2.00;;;23.10;44.00;;;;;;4788310;29;20529;-72
2021/09/11 00:36:48;;;;;;;1.88;1.40;;;23.00;43.90;;;;;;4793845;29;20059;-73
2021/09/11 00:39:15;;;;;;;1.85;1.75;;;23.00;43.90;;;;;;4795357;29;20127;-73
2021/09/11 00:41:42;;;;;;;1.77;1.67;;;23.10;44.00;;;;;;4789066;29;20589;-70
2021/09/11 00:44:09;;;;;;;1.23;1.13;;;23.10;44.00;;;;;;4786961;29;20055;-73
2021/09/11 00:46:36;;;;;;;1.63;1.52;;;23.00;44.00;;;;;;4794203;29;20055;-73
2021/09/11 00:49:04;;;;;;;1.80;1.50;;;23.00;44.10;;;;;;4795813;29;20086;-73
2021/09/11 00:51:31;;;;;;;1.67;1.58;;;23.00;44.10;;;;;;4790253;29;20051;-72
2021/09/11 00:53:59;;;;;;;1.48;1.38;;;23.00;44.10;;;;;;4788731;29;20118;-73
2021/09/11 00:56:28;;;;;;;1.60;1.50;;;23.00;44.20;;;;;;4791040;29;20483;-73
2021/09/11 00:58:55;;;;;;;1.95;1.38;;;23.00;44.20;;;;;;4793890;29;20082;-72
2021/09/11 01:01:22;;;;;;;1.67;1.40;;;23.00;44.20;;;;;;4789695;29;20133;-69
2021/09/11 01:03:50;;;;;;;1.48;1.38;;;23.00;44.20;;;;;;4786520;29;20444;-71
2021/09/11 01:06:17;;;;;;;1.63;1.52;;;23.00;44.30;;;;;;4793249;29;20051;-72
2021/09/11 01:08:45;;;;;;;1.55;1.40;;;23.00;44.30;;;;;;4794863;29;20057;-73
2021/09/11 01:11:13;;;;;;;2.33;1.73;;;23.00;44.30;;;;;;4793488;29;20139;-72
2021/09/11 01:13:40;;;;;;;1.40;1.27;;;22.90;44.30;;;;;;4784289;29;20105;-72
2021/09/11 01:16:08;;;;;;;1.45;1.35;;;23.00;44.30;;;;;;4790981;29;20126;-74
2021/09/11 01:18:36;;;;;;;1.60;1.50;;;23.00;44.30;;;;;;4793458;29;20058;-73
2021/09/11 01:21:04;;;;;;;1.88;1.52;;;22.90;44.30;;;;;;4795208;29;20047;-73
2021/09/11 01:23:33;;;;;;;1.77;1.65;;;23.00;44.30;;;;;;4777124;29;20086;-73
2021/09/11 01:26:00;;;;;;;1.30;1.20;;;23.00;44.30;;;;;;4792263;29;20143;-73
2021/09/11 01:28:29;;;;;;;1.92;1.83;;;23.00;44.30;;;;;;4792934;29;20046;-73
2021/09/11 01:30:56;;;;;;;1.40;1.30;;;22.90;44.30;;;;;;4792681;29;20055;-73
2021/09/11 01:33:24;;;;;;;1.73;1.63;;;23.00;44.30;;;;;;4778078;29;20058;-73
2021/09/11 01:35:54;;;;;;;1.40;1.30;;;22.90;44.30;;;;;;4792835;29;20065;-73
2021/09/11 01:38:22;;;;;;;1.23;1.23;;;22.90;44.30;;;;;;4793448;29;20446;-74
2021/09/11 01:40:50;;;;;;;1.20;1.10;;;23.00;44.30;;;;;;4792241;29;20078;-71
2021/09/11 01:43:33;;;;;;;2.30;1.63;;;23.00;44.30;;;;;;4782224;29;20085;-70
2021/09/11 01:46:00;;;;;;;1.52;1.40;;;23.00;44.40;;;;;;4792837;29;20200;-70
2021/09/11 01:48:27;;;;;;;1.30;1.30;;;22.90;44.30;;;;;;4788785;29;20106;-71
2021/09/11 01:50:55;;;;;;;1.27;1.15;;;22.90;44.30;;;;;;4792349;29;20047;-73
2021/09/11 01:53:22;;;;;;;1.73;1.63;;;22.90;44.30;;;;;;4782730;29;20050;-73
2021/09/11 01:55:49;;;;;;;1.30;1.20;;;23.00;44.30;;;;;;4791143;29;20047;-73
2021/09/11 01:58:16;;;;;;;1.38;1.27;;;22.90;44.30;;;;;;4791712;29;20494;-73
2021/09/11 02:00:44;;;;;;;1.45;1.40;;;22.90;44.30;;;;;;4792520;29;20079;-71
2021/09/11 02:03:11;;;;;;;1.30;1.20;;;22.90;44.40;;;;;;4781674;29;20216;-70
2021/09/11 02:05:39;;;;;;;1.75;1.65;;;22.90;44.40;;;;;;4789732;29;20058;-72
2021/09/11 02:08:07;;;;;;;1.35;1.25;;;22.90;44.50;;;;;;4789142;29;20090;-72
2021/09/11 02:10:35;;;;;;;1.15;1.15;;;22.90;44.50;;;;;;4791652;29;20059;-72
2021/09/11 02:13:02;;;;;;;1.65;1.50;;;22.90;44.50;;;;;;4776374;29;20055;-72
2021/09/11 02:15:30;;;;;;;1.30;1.20;;;22.90;44.50;;;;;;4792298;29;20082;-71
2021/09/11 02:17:57;;;;;;;2.00;1.80;;;22.90;44.50;;;;;;4792480;29;20318;-72
2021/09/11 02:20:24;;;;;;;2.72;1.50;;;22.90;44.60;;;;;;4790817;29;20061;-72
2021/09/11 02:22:51;;;;;;;1.23;1.20;;;22.80;44.60;;;;;;4779121;29;20142;-71
2021/09/11 02:25:18;;;;;;;1.80;1.30;;;22.80;44.60;;;;;;4791950;29;20040;-73
2021/09/11 02:27:45;;;;;;;1.00;1.00;;;22.80;44.60;;;;;;4791065;29;20130;-72
2021/09/11 02:30:13;;;;;;;1.52;1.30;;;22.80;44.60;;;;;;4791301;29;20047;-72
2021/09/11 02:32:40;;;;;;;1.30;1.20;;;22.80;44.60;;;;;;4779123;29;20063;-69
2021/09/11 02:35:08;;;;;;;1.27;1.17;;;22.80;44.60;;;;;;4787432;29;20061;-73
2021/09/11 02:37:36;;;;;;;1.88;1.40;;;22.80;44.60;;;;;;4791597;29;20160;-72
2021/09/11 02:40:03;;;;;;;1.50;1.40;;;22.80;44.60;;;;;;4790874;29;20053;-72
2021/09/11 02:42:30;;;;;;;3.20;1.52;;;22.80;44.60;;;;;;4783074;29;20055;-73
2021/09/11 02:44:58;;;;;;;1.70;1.52;;;22.80;44.60;;;;;;4791072;29;20138;-72
2021/09/11 02:47:25;;;;;;;2.53;1.70;;;22.80;44.60;;;;;;4792683;29;20179;-73
2021/09/11 02:49:52;;;;;;;1.45;1.40;;;22.90;44.60;;;;;;4793667;29;20158;-73
2021/09/11 02:52:19;;;;;;;1.60;1.20;;;22.90;44.60;;;;;;4783159;29;20749;-71
2021/09/11 02:54:46;;;;;;;1.30;1.20;;;22.80;44.50;;;;;;4791352;29;20047;-72
2021/09/11 02:57:13;;;;;;;1.08;1.08;;;22.90;44.60;;;;;;4795197;29;20060;-72
2021/09/11 02:59:40;;;;;;;1.67;1.58;;;22.90;44.60;;;;;;4794175;29;20057;-71
2021/09/11 03:02:07;;;;;;;1.52;1.42;;;22.80;44.50;;;;;;4782955;29;20399;-72
2021/09/11 03:04:34;;;;;;;1.40;1.30;;;22.80;44.50;;;;;;4791374;29;20051;-72
2021/09/11 03:07:01;;;;;;;2.25;1.85;;;22.80;44.60;;;;;;4795452;29;20058;-72
2021/09/11 03:09:28;;;;;;;1.27;1.20;;;22.90;44.60;;;;;;4794317;29;20142;-72
2021/09/11 03:11:55;;;;;;;1.27;1.20;;;22.90;44.60;;;;;;4786582;29;20065;-69
2021/09/11 03:14:23;;;;;;;1.27;1.27;;;22.90;44.60;;;;;;4791370;29;20054;-72
2021/09/11 03:16:50;;;;;;;1.48;1.38;;;22.90;44.60;;;;;;4791328;29;20047;-72
2021/09/11 03:19:17;;;;;;;1.40;1.30;;;22.90;44.60;;;;;;4794622;29;20409;-72
2021/09/11 03:21:44;;;;;;;1.40;1.30;;;22.80;44.60;;;;;;4789376;29;20438;-72
2021/09/11 03:24:11;;;;;;;1.40;1.27;;;22.80;44.70;;;;;;4789129;29;20057;-72
2021/09/11 03:26:39;;;;;;;1.50;1.20;;;22.80;44.70;;;;;;4794244;29;20089;-72
2021/09/11 03:29:06;;;;;;;1.50;1.40;;;22.80;44.70;;;;;;4792663;29;20079;-73
2021/09/11 03:31:33;;;;;;;1.33;1.23;;;22.80;44.70;;;;;;4789403;29;20147;-69
2021/09/11 03:34:00;;;;;;;1.52;1.42;;;22.80;44.80;;;;;;4790747;29;20065;-70
2021/09/11 03:36:27;;;;;;;1.30;1.20;;;22.80;44.80;;;;;;4790963;29;20593;-72
2021/09/11 03:38:54;;;;;;;1.40;1.30;;;22.80;44.90;;;;;;4794463;29;20533;-72
2021/09/11 03:41:22;;;;;;;1.50;1.40;;;22.80;44.90;;;;;;4793438;29;20051;-73
2021/09/11 03:43:49;;;;;;;1.30;1.20;;;22.70;44.80;;;;;;4784423;29;20083;-72
2021/09/11 03:46:16;;;;;;;1.67;1.17;;;22.80;44.90;;;;;;4793125;29;20055;-72
2021/09/11 03:48:44;;;;;;;1.52;1.42;;;22.70;44.80;;;;;;4794967;29;20047;-72
2021/09/11 03:51:11;;;;;;;1.23;1.23;;;22.80;44.90;;;;;;4792963;29;20070;-72
2021/09/11 03:53:38;;;;;;;2.13;1.45;;;22.70;44.80;;;;;;4784502;29;20047;-72
2021/09/11 03:56:05;;;;;;;1.35;1.10;;;22.70;44.80;;;;;;4794573;29;20129;-73
2021/09/11 03:58:33;;;;;;;1.60;1.50;;;22.70;44.80;;;;;;4793733;29;20047;-72
2021/09/11 04:01:02;;;;;;;1.35;1.20;;;22.80;44.80;;;;;;4791931;29;20081;-70
2021/09/11 04:03:30;;;;;;;1.42;1.33;;;22.80;44.80;;;;;;4784022;29;20422;-70
2021/09/11 04:05:57;;;;;;;1.40;1.30;;;22.80;44.80;;;;;;4791665;29;20236;-72
2021/09/11 04:08:25;;;;;;;1.08;1.05;;;22.80;44.80;;;;;;4794605;29;20039;-72
2021/09/11 04:10:52;;;;;;;1.30;1.20;;;22.70;44.80;;;;;;4793362;29;20171;-72
2021/09/11 04:13:19;;;;;;;1.30;1.20;;;22.70;44.80;;;;;;4782470;29;20049;-72
2021/09/11 04:15:46;;;;;;;1.40;1.30;;;22.80;44.80;;;;;;4794325;29;20415;-72
2021/09/11 04:18:13;;;;;;;1.50;1.40;;;22.80;44.80;;;;;;4793491;29;20043;-73
2021/09/11 04:20:40;;;;;;;1.70;1.60;;;22.80;44.80;;;;;;4793205;29;20062;-72
2021/09/11 04:23:08;;;;;;;1.98;1.77;;;22.80;44.80;;;;;;4781595;29;20043;-72
2021/09/11 04:25:35;;;;;;;1.33;1.23;;;22.80;44.80;;;;;;4793136;29;20076;-73
2021/09/11 04:28:02;;;;;;;1.30;1.00;;;22.80;44.80;;;;;;4794603;29;20112;-73
2021/09/11 04:30:29;;;;;;;1.30;1.20;;;22.80;44.90;;;;;;4792479;29;20315;-73
2021/09/11 04:32:56;;;;;;;1.33;1.20;;;22.80;44.70;;;;;;4785266;29;20228;-72
2021/09/11 04:35:23;;;;;;;1.58;1.38;;;22.80;44.70;;;;;;4792236;29;20442;-72
2021/09/11 04:37:50;;;;;;;1.42;1.20;;;22.80;44.80;;;;;;4793330;29;20043;-73
2021/09/11 04:40:17;;;;;;;1.10;1.10;;;22.80;44.80;;;;;;4793928;29;20047;-73
2021/09/11 04:42:44;;;;;;;1.40;1.30;;;22.80;44.80;;;;;;4782573;29;20047;-72
2021/09/11 04:45:12;;;;;;;1.40;1.27;;;22.80;44.80;;;;;;4793808;29;20366;-73
2021/09/11 04:47:39;;;;;;;1.27;1.17;;;22.80;44.80;;;;;;4792398;29;20087;-72
2021/09/11 04:50:07;;;;;;;1.65;1.25;;;22.80;44.80;;;;;;4792828;29;20330;-72
2021/09/11 04:52:34;;;;;;;1.25;1.15;;;22.80;44.70;;;;;;4784757;29;20133;-72
2021/09/11 04:55:01;;;;;;;1.60;1.50;;;22.80;44.70;;;;;;4793241;29;20755;-72
2021/09/11 04:57:28;;;;;;;1.55;1.17;;;22.80;44.70;;;;;;4789459;29;20061;-73
2021/09/11 04:59:55;;;;;;;1.40;1.30;;;22.80;44.80;;;;;;4790903;29;20065;-73
2021/09/11 05:02:24;;;;;;;1.40;1.30;;;22.80;44.70;;;;;;4784530;29;20194;-69
2021/09/11 05:04:51;;;;;;;1.65;1.55;;;22.80;44.70;;;;;;4790517;29;20051;-73
2021/09/11 05:07:18;;;;;;;1.60;1.35;;;22.80;44.70;;;;;;4792303;29;20163;-73
2021/09/11 05:09:45;;;;;;;1.20;1.15;;;22.80;44.60;;;;;;4794144;29;20141;-71
2021/09/11 05:12:12;;;;;;;1.00;1.00;;;22.90;44.50;;;;;;4782494;29;20158;-72
2021/09/11 05:14:39;;;;;;;1.73;1.35;;;22.90;44.30;;;;;;4786686;29;20457;-72
2021/09/11 05:17:07;;;;;;;2.55;1.15;;;22.90;44.20;;;;;;4792021;29;20074;-73
2021/09/11 05:19:34;;;;;;;1.00;1.00;;;22.90;44.20;;;;;;4792542;29;20113;-72
2021/09/11 05:22:01;;;;;;;1.40;1.20;;;22.90;44.20;;;;;;4786337;29;20078;-71
2021/09/11 05:24:28;;;;;;;1.58;1.48;;;22.90;44.20;;;;;;4788101;29;20059;-72
2021/09/11 05:26:55;;;;;;;3.53;1.13;;;22.90;44.10;;;;;;4792728;29;20325;-72
2021/09/11 05:29:22;;;;;;;1.40;1.30;;;22.90;44.10;;;;;;4793033;29;21086;-72
2021/09/11 05:31:50;;;;;;;1.48;1.38;;;22.90;44.10;;;;;;4785004;29;20051;-71
2021/09/11 05:34:18;;;;;;;1.50;1.40;;;22.90;44.10;;;;;;4786420;29;20050;-71
2021/09/11 05:36:45;;;;;;;1.48;1.13;;;22.90;44.00;;;;;;4793413;29;20114;-72
2021/09/11 05:39:12;;;;;;;1.40;1.30;;;22.90;43.90;;;;;;4792094;29;20130;-71
2021/09/11 05:41:39;;;;;;;1.10;1.10;;;22.90;43.90;;;;;;4788304;29;20811;-71
2021/09/11 05:44:06;;;;;;;1.30;1.20;;;22.90;43.80;;;;;;4789065;29;20065;-72
2021/09/11 05:46:33;;;;;;;1.50;1.48;;;23.00;43.80;;;;;;4792140;29;20142;-72
2021/09/11 05:49:00;;;;;;;1.40;1.30;;;23.00;43.80;;;;;;4791217;29;20085;-71
2021/09/11 05:51:27;;;;;;;1.52;1.42;;;23.00;43.70;;;;;;4791429;29;20061;-71
2021/09/11 05:53:55;;;;;;;1.30;1.20;;;23.10;43.70;;;;;;4786428;29;20055;-72
2021/09/11 05:56:22;;;;;;;1.30;1.20;;;23.00;43.60;;;;;;4790905;29;20557;-71
2021/09/11 05:58:49;;;;;;;1.25;1.25;;;23.00;43.50;;;;;;4789191;29;20079;-71
2021/09/11 06:01:16;;;;;;;1.30;1.20;;;23.10;43.60;;;;;;4791041;29;20223;-68
2021/09/11 06:03:43;;;;;;;1.38;1.27;;;23.10;43.50;;;;;;4780866;29;20055;-72
2021/09/11 06:06:11;;;;;;;1.30;1.30;;;23.10;43.50;;;;;;4791225;29;20135;-72
2021/09/11 06:08:38;;;;;;;1.10;1.10;;;23.10;43.50;;;;;;4790849;29;20066;-72
2021/09/11 06:11:05;;;;;;;1.20;1.20;;;23.10;43.40;;;;;;4794055;29;20117;-72
2021/09/11 06:13:32;;;;;;;5.30;1.27;;;23.10;43.30;;;;;;4780685;29;20078;-72
2021/09/11 06:16:02;;;;;;;1.30;1.20;;;23.20;43.30;;;;;;4795605;29;20513;-72
2021/09/11 06:18:29;;;;;;;1.17;1.17;;;23.20;43.30;;;;;;4790880;29;20428;-72
2021/09/11 06:20:56;;;;;;;1.75;1.15;;;23.20;43.30;;;;;;4794753;29;20342;-72
2021/09/11 06:23:23;;;;;;;1.90;1.67;;;23.20;43.30;;;;;;4785298;29;20138;-69
2021/09/11 06:25:50;;;;;;;1.40;1.30;;;23.20;43.30;;;;;;4794964;29;20083;-71
2021/09/11 06:28:21;;;;;;;1.83;1.45;;;23.20;43.30;;;;;;4795846;29;20129;-72
2021/09/11 06:30:48;;;;;;;1.60;1.50;;;23.20;43.20;;;;;;4792403;29;20045;-72
2021/09/11 06:33:15;;;;;;;1.70;1.60;;;23.20;43.20;;;;;;4781719;29;20089;-72
2021/09/11 06:35:42;;;;;;;2.13;1.92;;;23.30;43.20;;;;;;4790856;29;20047;-72
2021/09/11 06:38:09;;;;;;;1.48;1.38;;;23.30;43.20;;;;;;4788140;29;20052;-71
2021/09/11 06:40:37;;;;;;;1.48;1.38;;;23.30;43.20;;;;;;4792005;29;20137;-72
2021/09/11 06:43:04;;;;;;;1.33;1.23;;;23.30;43.10;;;;;;4782116;29;20079;-71
2021/09/11 06:45:31;;;;;;;1.52;1.42;;;23.30;43.10;;;;;;4788935;29;20115;-72
2021/09/11 06:47:58;;;;;;;2.03;1.90;;;23.30;43.00;;;;;;4791286;29;20050;-72
2021/09/11 06:50:25;;;;;;;1.30;1.20;;;23.40;43.10;;;;;;4792565;29;20134;-72
2021/09/11 06:52:53;;;;;;;2.28;1.50;;;23.40;43.00;;;;;;4784242;29;20094;-72
2021/09/11 06:55:20;;;;;;;1.50;1.40;;;23.40;43.00;;;;;;4790813;29;20437;-71
2021/09/11 06:57:47;;;;;;;2.38;1.90;;;23.40;43.00;;;;;;4792465;29;20065;-72
2021/09/11 07:00:14;;;;;;;1.45;1.35;;;23.50;43.00;;;;;;4788642;29;20359;-71
2021/09/11 07:02:41;;;;;;;1.60;1.50;;;23.50;43.00;;;;;;4780552;29;20562;-68
2021/09/11 07:05:09;;;;;;;2.00;1.80;;;23.50;43.00;;;;;;4788586;29;20356;-72
2021/09/11 07:07:36;;;;;;;1.95;1.60;;;23.50;42.90;;;;;;4791134;29;20090;-72
2021/09/11 07:10:06;;;;;;;1.77;1.67;;;23.50;42.90;;;;;;4791983;29;20043;-72
2021/09/11 07:12:33;;;;;;;2.05;1.48;;;23.50;42.90;;;;;;4780799;29;20047;-71
2021/09/11 07:15:02;;;;;;;1.90;1.80;;;23.50;42.90;;;;;;4789079;29;20113;-72
2021/09/11 07:17:29;;;;;;;1.73;1.63;;;23.50;42.80;;;;;;4788038;29;20091;-71
2021/09/11 07:19:56;;;;;;;1.70;1.60;;;23.60;42.90;;;;;;4790724;29;20090;-71
2021/09/11 07:22:23;;;;;;;1.92;1.80;;;23.60;42.90;;;;;;4788485;29;20381;-71
2021/09/11 07:24:50;;;;;;;1.60;1.50;;;23.60;42.80;;;;;;4787010;29;20047;-72
2021/09/11 07:27:17;;;;;;;2.00;1.80;;;23.60;42.80;;;;;;4791347;29;20134;-71
2021/09/11 07:29:44;;;;;;;1.58;1.48;;;23.60;42.80;;;;;;4790536;29;20489;-71
2021/09/11 07:32:12;;;;;;;2.03;1.90;;;23.70;42.90;;;;;;4785162;29;20138;-69
2021/09/11 07:34:39;;;;;;;1.60;1.50;;;23.70;42.90;;;;;;4788947;29;20171;-72
2021/09/11 07:37:06;;;;;;;1.67;1.58;;;23.70;42.80;;;;;;4795803;29;20046;-72
2021/09/11 07:39:33;;;;;;;2.17;1.98;;;23.70;42.80;;;;;;4793757;29;20064;-71
2021/09/11 07:42:00;;;;;;;1.88;1.77;;;23.70;42.80;;;;;;4789464;29;20051;-71
2021/09/11 07:44:27;;;;;;;1.67;1.58;;;23.80;42.80;;;;;;4793351;29;20078;-71
2021/09/11 07:46:55;;;;;;;2.10;1.90;;;23.80;42.80;;;;;;4794150;29;20138;-70
2021/09/11 07:49:22;;;;;;;3.63;1.65;;;23.80;42.80;;;;;;4793407;29;20551;-72
2021/09/11 07:51:50;;;;;;;2.03;1.92;;;23.80;42.80;;;;;;4792258;29;20410;-72
2021/09/11 07:54:17;;;;;;;1.98;1.77;;;23.80;42.80;;;;;;4789903;29;20078;-72
2021/09/11 07:56:44;;;;;;;2.00;1.90;;;23.90;42.80;;;;;;4794621;29;20050;-72
2021/09/11 07:59:11;;;;;;;2.63;2.38;;;23.90;42.80;;;;;;4791118;29;20130;-72
2021/09/11 08:01:38;;;;;;;1.80;1.70;;;23.90;42.90;;;;;;4789565;29;20518;-69
2021/09/11 08:04:06;;;;;;;2.88;1.77;;;23.90;42.90;;;;;;4788975;29;20127;-72
2021/09/11 08:06:33;;;;;;;1.80;1.63;;;23.90;42.80;;;;;;4793313;29;20142;-72
2021/09/11 08:09:00;;;;;;;2.55;2.35;;;23.90;42.80;;;;;;4793544;29;20051;-72
2021/09/11 08:11:28;;;;;;;2.50;2.30;;;23.90;42.80;;;;;;4790468;29;20047;-72
2021/09/11 08:13:55;;;;;;;1.70;1.60;;;24.00;42.90;;;;;;4787037;29;20055;-71
2021/09/11 08:16:22;;;;;;;1.80;1.70;;;24.00;42.80;;;;;;4790947;29;20139;-72
2021/09/11 08:18:49;;;;;;;1.92;1.80;;;24.00;42.80;;;;;;4792434;29;20055;-71
2021/09/11 08:21:16;;;;;;;2.08;1.67;;;24.00;42.80;;;;;;4792385;29;20138;-71
2021/09/11 08:23:43;;;;;;;2.47;1.83;;;24.10;42.80;;;;;;4781193;29;20151;-72
2021/09/11 08:26:11;;;;;;;2.10;1.90;;;24.00;42.80;;;;;;4788904;29;20721;-73
2021/09/11 08:28:38;;;;;;;1.90;1.80;;;24.10;42.80;;;;;;4793592;29;20082;-72
2021/09/11 08:31:05;;;;;;;1.92;1.83;;;24.10;42.80;;;;;;4792295;29;20055;-73
2021/09/11 08:33:32;;;;;;;2.33;2.13;;;24.10;42.70;;;;;;4785649;29;20078;-72
2021/09/11 08:35:59;;;;;;;2.13;1.92;;;24.10;42.70;;;;;;4793578;29;20051;-73
2021/09/11 08:38:27;;;;;;;1.85;1.75;;;24.10;42.70;;;;;;4789659;29;20056;-72
2021/09/11 08:40:54;;;;;;;3.10;2.00;;;24.10;42.70;;;;;;4793728;29;20369;-73
2021/09/11 08:43:21;;;;;;;2.50;1.98;;;24.10;42.60;;;;;;4782960;29;20588;-72
2021/09/11 08:45:48;;;;;;;2.03;1.92;;;24.20;42.60;;;;;;4791754;29;20047;-73
2021/09/11 08:48:15;;;;;;;3.28;2.38;;;24.20;42.60;;;;;;4793112;29;20135;-72
2021/09/11 08:50:42;;;;;;;2.40;2.30;;;24.20;42.60;;;;;;4793597;29;20055;-72
2021/09/11 08:53:10;;;;;;;2.33;2.17;;;24.20;42.60;;;;;;4778755;29;20043;-72
2021/09/11 08:55:37;;;;;;;2.53;2.33;;;24.20;42.50;;;;;;4793013;29;20532;-72
2021/09/11 08:58:07;;;;;;;2.00;1.90;;;24.20;42.50;;;;;;4789162;29;20530;-72
2021/09/11 09:00:40;;;;;;;2.50;2.30;;;24.30;42.50;;;;;;4792083;29;20053;-73
2021/09/11 09:03:35;;;;;;;2.30;2.10;;;24.30;42.40;;;;;;4785543;29;20319;-71
2021/09/11 09:06:17;;;;;;;1.77;1.65;;;24.30;42.30;;;;;;4792864;29;20047;-72
2021/09/11 09:08:47;;;;;;;2.47;2.28;;;24.30;42.20;;;;;;4793059;29;20550;-72
2021/09/11 09:11:20;;;;;;;2.35;2.15;;;24.30;42.20;;;;;;4789617;29;20467;-71
2021/09/11 09:14:08;;;;;;;2.20;1.90;;;24.40;42.20;;;;;;4785039;29;20058;-72
2021/09/11 09:16:38;;;;;;;1.98;1.83;;;24.40;42.10;;;;;;4790583;29;20055;-71
2021/09/11 09:19:13;;;;;;;4.07;2.00;;;24.40;42.00;;;;;;4791899;29;20142;-72
2021/09/11 09:21:42;;;;;;;2.08;1.88;;;24.40;42.00;;;;;;4787979;29;20051;-72
2021/09/11 09:24:12;;;;;;;2.33;2.15;;;24.40;41.90;;;;;;4786696;29;20105;-72
2021/09/11 09:26:51;;;;;;;1.80;1.70;;;24.40;41.90;;;;;;4792632;29;20145;-73
2021/09/11 09:29:19;;;;;;;2.00;1.85;;;24.40;41.80;;;;;;4791991;29;20118;-72
2021/09/11 09:31:54;;;;;;;2.03;1.83;;;24.50;41.80;;;;;;4786611;29;20130;-70
2021/09/11 09:34:30;;;;;;;1.75;1.65;;;24.50;41.70;;;;;;4787661;29;20449;-72
2021/09/11 09:36:59;;;;;;;2.00;1.90;;;24.50;41.70;;;;;;4790551;29;20061;-72
2021/09/11 09:39:27;;;;;;;2.75;1.95;;;24.50;41.60;;;;;;4791298;29;20152;-72
2021/09/11 09:42:03;;;;;;;2.00;1.80;;;24.50;41.60;;;;;;4786090;29;20074;-72
2021/09/11 09:44:41;;;;;;;2.20;2.00;;;24.50;41.50;;;;;;4786368;29;20047;-72
2021/09/11 09:47:15;;;;;;;1.98;1.88;;;24.50;41.50;;;;;;4791367;29;20266;-70
2021/09/11 09:50:02;;;;;;;1.95;1.80;;;24.50;41.40;;;;;;4791869;29;20461;-72
2021/09/11 09:52:30;;;;;;;1.85;1.75;;;24.50;41.40;;;;;;4787153;29;20568;-72
2021/09/11 09:54:57;;;;;;;1.92;1.70;;;24.50;41.40;;;;;;4789606;29;20094;-72
2021/09/11 09:57:24;;;;;;;1.52;1.42;;;24.50;41.30;;;;;;4790966;29;20138;-72
2021/09/11 09:59:52;;;;;;;2.33;2.13;;;24.50;41.30;;;;;;4787711;29;20075;-73
2021/09/11 10:02:19;;;;;;;1.90;1.80;;;24.50;41.50;;;;;;4783547;29;20212;-72
2021/09/11 10:04:51;;;;;;;2.40;2.20;;;24.50;41.20;;;;;;4790636;29;20047;-72
2021/09/11 10:07:20;;;;;;;2.30;2.15;;;24.50;41.30;;;;;;4791413;29;20150;-72
2021/09/11 10:09:49;;;;;;;1.73;1.63;;;24.50;41.20;;;;;;4791202;29;20579;-72
2021/09/11 10:12:34;;;;;;;1.38;1.23;;;24.50;41.20;;;;;;4783443;29;20154;-70
2021/09/11 10:15:25;;;;;;;2.00;1.67;;;24.60;41.20;;;;;;4790580;29;20100;-71
2021/09/11 10:17:54;;;;;;;2.08;1.88;;;24.60;41.10;;;;;;4789235;29;20120;-72
2021/09/11 10:20:22;;;;;;;1.77;1.67;;;24.60;41.00;;;;;;4791441;29;20313;-72
2021/09/11 10:23:08;;;;;;;1.70;1.60;;;24.60;41.00;;;;;;4780719;29;20042;-68
2021/09/11 10:25:43;;;;;;;2.15;1.95;;;24.60;41.00;;;;;;4792043;29;20112;-72
2021/09/11 10:28:17;;;;;;;1.42;1.33;;;24.60;40.90;;;;;;4788217;29;20629;-71
2021/09/11 10:31:05;;;;;;;1.92;1.83;;;24.60;41.00;;;;;;4791290;29;20061;-71
2021/09/11 10:33:53;;;;;;;1.90;1.80;;;24.60;40.90;;;;;;4781563;29;20098;-71
2021/09/11 10:36:46;;;;;;;1.83;1.73;;;24.70;40.90;;;;;;4789920;29;20138;-72
2021/09/11 10:39:18;;;;;;;1.77;1.67;;;24.70;40.80;;;;;;4789292;29;20607;-72
2021/09/11 10:42:06;;;;;;;1.83;1.73;;;24.70;40.80;;;;;;4785933;29;20047;-71
2021/09/11 10:44:38;;;;;;;1.50;1.40;;;24.70;40.70;;;;;;4785589;29;20063;-72
2021/09/11 10:47:05;;;;;;;1.50;1.50;;;24.70;40.70;;;;;;4790406;29;20055;-70
2021/09/11 10:49:35;;;;;;;1.75;1.65;;;24.70;40.70;;;;;;4792299;29;20046;-72
2021/09/11 10:52:11;;;;;;;1.58;1.48;;;24.80;40.70;;;;;;4784447;29;20109;-73
2021/09/11 10:54:39;;;;;;;1.50;1.40;;;24.70;40.70;;;;;;4787017;29;20051;-72
2021/09/11 10:57:09;;;;;;;2.10;2.00;;;24.70;40.60;;;;;;4790205;29;20531;-72
2021/09/11 10:59:38;;;;;;;;;;;24.80;40.60;;;;;;4792512;29;20094;-72
2021/09/11 11:02:36;;;;;;;2.03;1.60;;;24.70;40.50;;;;;;4784235;29;20406;-72
2021/09/11 11:05:10;;;;;;;2.13;1.92;;;24.80;40.60;;;;;;4792239;29;20424;-71
2021/09/11 11:07:48;;;;;;;2.40;2.20;;;24.80;40.40;;;;;;4789401;29;20055;-71
2021/09/11 11:10:18;;;;;;;1.95;1.80;;;24.80;40.30;;;;;;4790829;29;20126;-72
2021/09/11 11:12:49;;;;;;;1.98;1.88;;;24.80;40.30;;;;;;4769263;29;20058;-71
2021/09/11 11:15:23;;;;;;;1.50;1.38;;;24.80;40.30;;;;;;4794673;29;20051;-72
2021/09/11 11:17:51;;;;;;;2.20;2.00;;;24.80;40.30;;;;;;4794018;29;20138;-72
2021/09/11 11:20:27;;;;;;;3.67;1.45;;;24.80;40.30;;;;;;4794589;29;20145;-72
2021/09/11 11:22:58;;;;;;;2.10;1.90;;;24.80;40.30;;;;;;4781340;29;20054;-71
2021/09/11 11:25:35;;;;;;;2.33;1.80;;;24.80;40.30;;;;;;4795850;29;20043;-71
2021/09/11 11:28:05;;;;;;;1.88;1.73;;;24.80;40.20;;;;;;4793775;29;20138;-72
2021/09/11 11:30:35;;;;;;;1.70;1.60;;;24.80;40.20;;;;;;4791731;29;20138;-72
2021/09/11 11:33:04;;;;;;;;;;;24.70;40.10;;;;;;4784532;29;20293;-71
2021/09/11 11:35:32;;;;;;;1.48;1.38;;;24.80;40.00;;;;;;4791158;29;19929;-72
2021/09/11 11:37:59;;;;;;;2.13;1.92;;;24.80;40.10;;;;;;4794200;29;20053;-72
2021/09/11 11:40:27;;;;;;;1.60;1.50;;;24.70;40.00;;;;;;4794926;29;20154;-72
2021/09/11 11:43:01;;;;;;;1.50;1.40;;;24.70;40.00;;;;;;4786309;29;20075;-68
2021/09/11 11:45:29;;;;;;;1.63;1.52;;;24.80;40.00;;;;;;4792730;29;20043;-72
2021/09/11 11:48:07;;;;;;;1.90;1.80;;;24.80;39.90;;;;;;4794352;29;20104;-71
2021/09/11 11:50:37;;;;;;;1.77;1.67;;;24.80;39.90;;;;;;4791987;29;20141;-71
2021/09/11 11:53:07;;;;;;;1.75;1.65;;;24.80;39.90;;;;;;4784379;29;20320;-72
2021/09/11 11:55:40;;;;;;;1.77;1.67;;;24.90;39.80;;;;;;4791298;29;20536;-72
2021/09/11 11:58:10;;;;;;;1.90;1.60;;;24.90;39.70;;;;;;4792991;29;20054;-72
2021/09/11 12:00:49;;;;;;;1.70;1.60;;;24.90;39.70;;;;;;4794444;29;20130;-72
2021/09/11 12:03:42;;;;;;;1.50;1.40;;;24.90;39.70;;;;;;4781275;29;20422;-73
2021/09/11 12:06:25;;;;;;;1.60;1.50;;;24.90;39.60;;;;;;4794506;29;20081;-72
2021/09/11 12:08:52;;;;;;;1.70;1.60;;;24.90;39.60;;;;;;4791003;29;20051;-72
2021/09/11 12:11:27;;;;;;;2.45;1.73;;;24.90;39.50;;;;;;4792522;29;20053;-71
2021/09/11 12:14:01;;;;;;;1.40;1.30;;;24.90;39.50;;;;;;4790730;29;20138;-72
2021/09/11 12:16:30;;;;;;;1.85;1.63;;;24.90;39.40;;;;;;4795538;29;20564;-71
2021/09/11 12:19:18;;;;;;;1.63;1.52;;;24.90;39.30;;;;;;4794984;29;20059;-72
2021/09/11 12:21:47;;;;;;;1.50;1.40;;;24.90;39.30;;;;;;4789924;29;20051;-72
2021/09/11 12:24:19;;;;;;;1.60;1.50;;;25.00;39.30;;;;;;4787418;29;20525;-72
2021/09/11 12:26:46;;;;;;;1.42;1.33;;;25.00;39.30;;;;;;4794167;29;20505;-72
2021/09/11 12:29:16;;;;;;;1.88;1.77;;;25.00;39.20;;;;;;4794879;29;20142;-71
2021/09/11 12:31:56;;;;;;;1.40;1.30;;;25.00;39.20;;;;;;4788835;29;20109;-72
2021/09/11 12:34:24;;;;;;;1.73;1.63;;;25.00;39.20;;;;;;4789667;29;20051;-72
2021/09/11 12:37:04;;;;;;;1.73;1.63;;;25.00;39.10;;;;;;4792955;29;20124;-72
2021/09/11 12:39:33;;;;;;;;;;;25.00;39.10;;;;;;4792456;29;20060;-72
2021/09/11 12:42:10;;;;;;;2.17;2.08;;;25.00;39.00;;;;;;4787566;29;20023;-71
2021/09/11 12:44:39;;;;;;;2.03;1.83;;;25.00;39.00;;;;;;4789262;29;20090;-72
2021/09/11 12:47:08;;;;;;;1.60;1.50;;;25.00;39.00;;;;;;4792344;29;20103;-72
2021/09/11 12:49:38;;;;;;;1.38;1.27;;;25.00;39.00;;;;;;4790049;29;20580;-72
2021/09/11 12:52:08;;;;;;;1.60;1.50;;;25.00;39.00;;;;;;4782965;29;20060;-71
2021/09/11 12:54:35;;;;;;;1.50;1.40;;;25.00;38.90;;;;;;4790712;29;20496;-72
2021/09/11 12:57:04;;;;;;;1.60;1.50;;;25.00;38.90;;;;;;4792283;29;20832;-72
2021/09/11 12:59:31;;;;;;;1.30;1.30;;;25.00;38.80;;;;;;4791140;29;20094;-72